Terminal Aerodrome Forecast
Issued by NWS

Home | Current Version | Previous Version | Text Only | Print | Product List | Glossary On
Versions: 1 2 3 4 5 6 7 8 9 10 11 12 13 14 15 16 17 18 19 20 21 22 23 24 25 26 27 28 29 30 31 32
000
FTUS42 KJAX 181700
TAFVQQ
TAF
KVQQ 181721Z 1818/1918 09010KT 2SM RA BR BKN003 OVC015
     FM181900 12011G18KT 2SM SHRA BR OVC007
     FM190400 18013KT 3SM -SHRA BR BKN010=

USA.gov is the U.S. government's official web portal to all federal, state and local government web resources and services.